Time;durP1;ratioP1;P1;durP2;ratioP2;P2;SDS_P1;SDS_P2;PMS_P1;PMS_P2;Temp;Humidity;BMP_temperature;BMP_pressure;BME280_temperature;BME280_humidity;BME280_pressure;Samples;Min_cycle;Max_cycle;Signal;HPM_P1;HPM_P2
2022/01/23 00:00:58;;;;;;;61.50;23.70;;;;;;;-4.61;76.20;99765.70;108483;1274;22666;-75
2022/01/23 00:03:25;;;;;;;55.70;21.90;;;;;;;-4.67;75.81;99761.53;108506;1274;25378;-74
2022/01/23 00:05:53;;;;;;;58.50;22.50;;;;;;;-4.72;75.65;99752.10;108469;1274;22614;-74
2022/01/23 00:08:21;;;;;;;48.30;20.50;;;;;;;-4.77;75.25;99752.89;108497;1274;22552;-74
2022/01/23 00:10:51;;;;;;;54.10;21.40;;;;;;;-4.84;75.16;99753.98;108275;1274;25290;-74
2022/01/23 00:13:32;;;;;;;44.20;18.50;;;;;;;-4.87;75.25;99755.80;108310;1274;25461;-74
2022/01/23 00:18:44;;;;;;;37.00;15.40;;;;;;;-4.95;75.29;99760.80;108294;1274;24223;-74
2022/01/23 00:21:11;;;;;;;42.10;17.30;;;;;;;-4.98;75.46;99754.46;108298;1274;25439;-74
2022/01/23 00:31:39;;;;;;;35.00;15.80;;;;;;;-4.83;76.25;99742.77;108302;1274;22847;-74
2022/01/23 00:34:06;;;;;;;34.50;16.50;;;;;;;-4.84;76.45;99736.82;108313;1274;22562;-76
2022/01/23 00:36:35;;;;;;;41.10;17.60;;;;;;;-4.85;76.27;99733.41;108307;1274;22566;-74
2022/01/23 00:39:03;;;;;;;47.50;18.80;;;;;;;-4.87;76.31;99737.97;108315;1274;24439;-74
2022/01/23 00:41:30;;;;;;;47.30;17.10;;;;;;;-4.88;75.87;99736.93;108281;1274;22860;-73
2022/01/23 00:43:57;;;;;;;41.00;16.70;;;;;;;-4.91;75.83;99740.80;108312;1274;22630;-75
2022/01/23 00:46:32;;;;;;;46.60;18.60;;;;;;;-4.93;75.78;99741.11;108320;1274;22746;-74
2022/01/23 00:51:32;;;;;;;39.40;16.50;;;;;;;-5.00;75.58;99745.75;108296;1274;22602;-74
2022/01/23 00:54:01;;;;;;;42.20;17.30;;;;;;;-5.03;75.59;99754.05;108259;1274;23109;-75
2022/01/23 00:56:28;;;;;;;43.50;17.90;;;;;;;-5.07;75.43;99752.29;108319;1274;22653;-74
2022/01/23 00:58:55;;;;;;;41.70;19.10;;;;;;;-5.05;75.37;99761.31;108259;1274;25123;-74
2022/01/23 01:01:22;;;;;;;39.10;18.60;;;;;;;-5.02;75.91;99755.25;108244;1273;22559;-74
2022/01/23 01:03:49;;;;;;;42.40;18.10;;;;;;;-5.01;76.16;99752.89;108243;1274;25491;-74
2022/01/23 01:06:17;;;;;;;49.00;19.70;;;;;;;-5.00;76.58;99747.62;108200;1274;25307;-73
2022/01/23 01:08:49;;;;;;;44.80;17.40;;;;;;;-5.00;76.52;99745.42;108199;1274;22548;-74
2022/01/23 01:35:22;;;;;;;46.10;18.50;;;;;;;-5.13;76.75;99733.00;108216;1274;22644;-74
2022/01/23 01:37:49;;;;;;;53.00;22.20;;;;;;;-5.15;76.95;99739.92;108221;1273;22614;-74
2022/01/23 01:40:16;;;;;;;52.00;21.90;;;;;;;-5.15;76.70;99744.52;108246;1274;25842;-74
2022/01/23 01:42:45;;;;;;;46.40;21.30;;;;;;;-5.14;76.62;99746.74;108215;1273;22586;-74
2022/01/23 01:45:12;;;;;;;48.50;20.10;;;;;;;-5.13;76.39;99744.73;108289;1273;22659;-74
2022/01/23 01:47:53;;;;;;;46.80;19.30;;;;;;;-5.11;76.15;99741.54;108237;1274;22668;-74
2022/01/23 01:50:21;;;;;;;44.00;18.80;;;;;;;-5.11;76.14;99742.55;108220;1274;22696;-74
2022/01/23 01:52:48;;;;;;;45.10;19.60;;;;;;;-5.12;76.08;99740.17;108251;1274;22617;-74
2022/01/23 01:55:23;;;;;;;46.10;21.40;;;;;;;-5.12;75.85;99742.20;108241;1273;22569;-74
2022/01/23 01:57:55;;;;;;;50.30;24.10;;;;;;;-5.08;75.89;99745.30;108273;1274;22557;-74
2022/01/23 02:10:58;;;;;;;43.00;20.10;;;;;;;-5.22;76.50;99744.23;108268;1273;22546;-74
2022/01/23 02:13:32;;;;;;;43.50;20.20;;;;;;;-5.29;76.17;99740.23;108268;1274;22582;-74
2022/01/23 02:52:07;;;;;;;41.10;19.20;;;;;;;-5.40;76.54;99768.58;108301;1273;22968;-74
2022/01/23 02:54:56;;;;;;;42.70;19.30;;;;;;;-5.41;76.49;99771.79;108227;1273;22560;-73
2022/01/23 02:57:40;;;;;;;49.40;20.30;;;;;;;-5.39;76.57;99767.41;108219;1273;25417;-74
2022/01/23 03:00:18;;;;;;;54.60;26.40;;;;;;;-5.37;76.23;99767.61;108239;1273;22680;-74
2022/01/23 03:02:52;;;;;;;65.50;33.90;;;;;;;-5.29;76.23;99762.81;108251;1273;22600;-74
2022/01/23 03:10:42;;;;;;;45.50;20.40;;;;;;;-5.16;77.35;99765.55;108223;1273;22560;-74
2022/01/23 03:26:51;;;;;;;30.00;14.60;;;;;;;-5.25;76.56;99779.17;108251;1274;22636;-74
2022/01/23 03:34:20;;;;;;;41.80;18.00;;;;;;;-5.28;76.87;99778.95;108237;1273;22555;-74
2022/01/23 03:36:47;;;;;;;44.10;19.00;;;;;;;-5.30;77.19;99778.25;108247;1273;22553;-74
2022/01/23 03:39:14;;;;;;;51.50;23.80;;;;;;;-5.35;77.42;99775.95;108255;1274;22670;-74
2022/01/23 03:41:43;;;;;;;58.00;23.20;;;;;;;-5.37;77.17;99770.15;108256;1273;22628;-74
2022/01/23 03:44:14;;;;;;;51.00;23.60;;;;;;;-5.41;77.08;99769.39;108219;1274;22561;-75
2022/01/23 03:49:32;;;;;;;54.00;23.10;;;;;;;-5.44;76.81;99771.71;108227;1274;25506;-74
2022/01/23 03:52:01;;;;;;;52.60;22.20;;;;;;;-5.46;76.75;99776.96;108216;1274;22552;-74
2022/01/23 03:54:29;;;;;;;53.70;23.00;;;;;;;-5.46;76.79;99774.59;108235;1274;25360;-73
2022/01/23 03:56:58;;;;;;;62.60;29.20;;;;;;;-5.45;76.72;99774.94;108230;1274;26630;-74
2022/01/23 03:59:27;;;;;;;64.40;29.60;;;;;;;-5.38;76.76;99770.30;108226;1273;25428;-74
2022/01/23 04:01:54;;;;;;;58.70;27.30;;;;;;;-5.33;77.23;99772.09;108215;1273;22653;-74
2022/01/23 04:04:38;;;;;;;51.60;21.40;;;;;;;-5.31;77.63;99770.77;108245;1273;22601;-73
2022/01/23 04:07:12;;;;;;;60.10;23.40;;;;;;;-5.36;77.93;99771.34;108245;1273;22671;-73
2022/01/23 04:09:40;;;;;;;59.10;24.20;;;;;;;-5.41;77.91;99770.42;108353;1273;22617;-73
2022/01/23 04:12:10;;;;;;;57.70;24.50;;;;;;;-5.44;77.74;99771.89;108421;1274;22646;-76
2022/01/23 04:14:45;;;;;;;58.90;25.60;;;;;;;-5.45;77.19;99775.95;108431;1273;25415;-77
2022/01/23 04:20:21;;;;;;;61.70;25.30;;;;;;;-5.51;76.91;99789.60;108440;1274;22562;-76
2022/01/23 04:33:56;;;;;;;59.00;23.30;;;;;;;-5.50;77.74;99810.68;108428;1273;22568;-74
2022/01/23 05:04:46;;;;;;;70.10;27.90;;;;;;;-5.55;77.33;99812.96;108430;1273;22635;-74
2022/01/23 05:09:26;;;;;;;65.60;32.40;;;;;;;-5.47;77.34;99821.95;108425;1273;22554;-74
2022/01/23 05:11:59;;;;;;;68.20;26.80;;;;;;;-5.42;77.59;99830.51;108434;1273;22588;-74
2022/01/23 05:14:39;;;;;;;;;;;;;;;-5.41;77.81;99836.46;108454;1273;25288;-74
2022/01/23 05:17:09;;;;;;;64.70;28.00;;;;;;;-5.40;78.13;99834.28;108438;1273;22655;-75
2022/01/23 05:19:37;;;;;;;73.20;29.80;;;;;;;-5.39;77.99;99830.91;108454;1273;25929;-74
2022/01/23 05:22:44;;;;;;;69.70;28.50;;;;;;;-5.39;77.82;99833.27;108465;1273;22708;-75
2022/01/23 05:25:41;;;;;;;77.20;28.60;;;;;;;-5.39;77.67;99834.13;108409;1273;22568;-74
2022/01/23 05:27:52;;;;;;;62.20;27.50;;;;;;;-5.38;77.59;99838.73;108409;1273;22561;-76
2022/01/23 05:30:20;;;;;;;65.60;27.10;;;;;;;-5.38;77.38;99838.75;108473;1273;22642;-75
2022/01/23 05:32:48;;;;;;;74.80;33.60;;;;;;;-5.36;77.32;99837.91;108480;1273;22710;-72
2022/01/23 05:35:19;;;;;;;75.70;36.70;;;;;;;-5.31;77.21;99842.09;108436;1273;24377;-74
2022/01/23 05:37:47;;;;;;;73.30;32.30;;;;;;;-5.26;77.35;99837.40;108446;1273;25674;-76
2022/01/23 05:40:17;;;;;;;66.80;29.20;;;;;;;-5.24;77.98;99844.40;108408;1273;22649;-74
2022/01/23 05:42:44;;;;;;;69.60;28.50;;;;;;;-5.24;78.35;99844.56;108440;1273;22566;-74
2022/01/23 05:45:11;;;;;;;71.20;29.70;;;;;;;-5.23;78.18;99853.10;108432;1273;24373;-74
2022/01/23 05:47:38;;;;;;;66.70;29.80;;;;;;;-5.19;78.05;99856.56;108440;1273;22626;-74
2022/01/23 05:50:06;;;;;;;73.10;30.00;;;;;;;-5.17;78.06;99855.55;108462;1273;22617;-74
2022/01/23 05:52:34;;;;;;;68.00;29.60;;;;;;;-5.15;77.77;99863.75;108469;1273;22557;-75
2022/01/23 05:55:01;;;;;;;83.10;32.40;;;;;;;-5.13;77.84;99862.77;108448;1273;22581;-75
2022/01/23 05:57:28;;;;;;;89.70;38.80;;;;;;;-5.12;77.47;99861.95;108533;1273;22564;-74
2022/01/23 05:59:55;;;;;;;98.60;42.00;;;;;;;-5.05;77.70;99857.80;108273;1273;24416;-73
2022/01/23 06:02:22;;;;;;;82.80;37.40;;;;;;;-5.00;77.77;99842.77;108240;1273;23973;-74
2022/01/23 06:04:48;;;;;;;76.30;32.40;;;;;;;-4.97;78.24;99839.27;108247;1273;22599;-75
2022/01/23 06:07:15;;;;;;;74.60;32.70;;;;;;;-4.97;78.74;99838.75;108258;1273;22563;-75
2022/01/23 06:09:42;;;;;;;68.70;31.00;;;;;;;-4.95;78.67;99843.38;108326;1273;22577;-74
2022/01/23 06:12:10;;;;;;;67.30;29.90;;;;;;;-4.94;78.59;99846.62;108244;1273;23255;-74
2022/01/23 06:14:37;;;;;;;66.60;29.30;;;;;;;-4.93;78.34;99840.85;108290;1273;22719;-74
2022/01/23 06:17:04;;;;;;;67.30;28.90;;;;;;;-4.94;78.29;99840.34;108190;1273;22575;-73
2022/01/23 06:19:33;;;;;;;64.60;29.10;;;;;;;-4.95;78.19;99848.30;108216;1273;25214;-73
2022/01/23 06:22:00;;;;;;;72.60;34.10;;;;;;;-4.92;78.11;99862.42;108225;1273;24260;-73
2022/01/23 06:24:30;;;;;;;79.40;36.40;;;;;;;-4.85;78.03;99863.73;108260;1273;22597;-74
2022/01/23 06:27:00;;;;;;;62.90;31.50;;;;;;;-4.80;78.23;99869.42;108241;1273;22688;-73
2022/01/23 06:29:30;;;;;;;66.80;28.10;;;;;;;-4.76;78.86;99875.95;108244;1273;25119;-76
2022/01/23 06:32:00;;;;;;;61.00;29.00;;;;;;;-4.76;79.14;99879.70;108223;1273;25477;-76
2022/01/23 06:34:29;;;;;;;58.90;26.50;;;;;;;-4.76;79.06;99885.13;108220;1273;22573;-76
2022/01/23 06:36:57;;;;;;;64.90;28.40;;;;;;;-4.77;78.68;99889.02;108247;1273;22618;-75
2022/01/23 06:39:25;;;;;;;65.20;29.90;;;;;;;-4.77;78.41;99890.05;108204;1273;22570;-75
2022/01/23 06:41:52;;;;;;;69.00;32.40;;;;;;;-4.76;78.49;99894.31;108252;1273;22558;-75
2022/01/23 06:44:19;;;;;;;69.80;34.50;;;;;;;-4.77;78.33;99886.83;108214;1273;22556;-75
2022/01/23 06:46:46;;;;;;;71.20;35.00;;;;;;;-4.73;78.29;99890.63;108217;1273;22568;-74
2022/01/23 06:49:13;;;;;;;67.40;32.20;;;;;;;-4.68;78.44;99900.55;108183;1274;22612;-74
2022/01/23 06:51:42;;;;;;;66.20;29.40;;;;;;;-4.66;79.06;99900.26;108247;1273;22550;-74
2022/01/23 06:54:10;;;;;;;83.00;35.30;;;;;;;-4.66;79.23;99899.41;108235;1273;23059;-75
2022/01/23 06:56:37;;;;;;;83.80;35.30;;;;;;;-4.66;79.10;99895.33;108258;1273;22614;-74
2022/01/23 06:59:04;;;;;;;80.40;34.40;;;;;;;-4.67;78.79;99890.73;108230;1273;22732;-74
2022/01/23 07:01:31;;;;;;;67.40;31.20;;;;;;;-4.68;78.81;99889.01;108230;1273;22638;-73
2022/01/23 07:03:58;;;;;;;68.20;31.10;;;;;;;-4.68;78.62;99894.44;108218;1271;23179;-74
2022/01/23 07:06:25;;;;;;;82.00;36.90;;;;;;;-4.68;78.13;99899.04;108240;1273;22569;-73
2022/01/23 07:08:52;;;;;;;91.80;40.20;;;;;;;-4.62;78.38;99897.42;108231;1273;22613;-75
2022/01/23 07:11:19;;;;;;;76.20;34.20;;;;;;;-4.58;78.70;99895.29;108189;1273;22663;-74
2022/01/23 07:13:46;;;;;;;70.50;29.00;;;;;;;-4.53;79.19;99902.48;108221;1273;23513;-74
2022/01/23 07:16:13;;;;;;;72.30;31.50;;;;;;;-4.54;79.40;99909.95;108209;1273;22999;-74
2022/01/23 07:18:40;;;;;;;73.50;29.00;;;;;;;-4.52;79.34;99912.71;108819;1273;25422;-74
2022/01/23 07:21:07;;;;;;;66.60;27.40;;;;;;;-4.51;79.15;99915.11;108242;1273;22619;-75
2022/01/23 07:23:34;;;;;;;64.20;28.70;;;;;;;-4.50;78.86;99918.19;108197;1273;24247;-73
2022/01/23 07:26:01;;;;;;;65.70;28.50;;;;;;;-4.48;78.71;99913.80;108222;1273;22699;-74
2022/01/23 07:28:37;;;;;;;57.70;26.80;;;;;;;-4.45;78.72;99911.27;108249;1273;22711;-74
2022/01/23 07:31:06;;;;;;;71.50;31.10;;;;;;;-4.43;78.31;99906.89;108221;1273;24301;-74
2022/01/23 07:33:35;;;;;;;67.50;31.20;;;;;;;-4.35;78.65;99903.11;108218;1273;22607;-74
2022/01/23 07:36:05;;;;;;;61.50;27.10;;;;;;;-4.29;78.78;99913.91;108215;1273;22541;-74
2022/01/23 07:38:32;;;;;;;60.90;26.60;;;;;;;-4.25;79.43;99921.45;108241;1273;24419;-74
2022/01/23 07:40:59;;;;;;;63.70;27.20;;;;;;;-4.25;79.33;99923.16;108231;1273;26351;-76
2022/01/23 07:43:26;;;;;;;62.80;27.70;;;;;;;-4.24;79.35;99928.95;108236;1273;22708;-75
2022/01/23 07:45:53;;;;;;;64.80;28.00;;;;;;;-4.21;79.14;99933.77;108195;1273;22552;-76
2022/01/23 07:48:20;;;;;;;67.60;30.50;;;;;;;-4.19;78.89;99940.58;108220;1273;22539;-75
2022/01/23 07:50:47;;;;;;;63.10;29.90;;;;;;;-4.18;78.89;99949.61;108231;1273;22772;-75
2022/01/23 07:53:14;;;;;;;69.80;32.00;;;;;;;-4.15;78.45;99956.80;108204;1273;22551;-76
2022/01/23 07:55:41;;;;;;;81.20;36.90;;;;;;;-4.07;78.60;99959.82;108213;1273;22584;-75
2022/01/23 07:58:12;;;;;;;65.00;31.60;;;;;;;-3.97;78.77;99965.07;108181;1273;25516;-77
2022/01/23 08:00:41;;;;;;;65.40;28.40;;;;;;;-3.94;79.11;99972.27;108206;1273;22623;-78
2022/01/23 08:03:09;;;;;;;71.80;31.30;;;;;;;-3.94;79.48;99976.19;108224;1274;23957;-80
2022/01/23 08:05:37;;;;;;;70.80;31.10;;;;;;;-3.92;79.39;99979.25;108209;1273;22655;-81
2022/01/23 08:08:04;;;;;;;74.50;33.20;;;;;;;-3.91;78.96;99982.85;108349;1273;22631;-80
2022/01/23 08:10:32;;;;;;;76.10;33.30;;;;;;;-3.89;78.71;99982.36;108163;1273;25398;-80
2022/01/23 08:12:58;;;;;;;79.10;35.70;;;;;;;-3.89;78.63;99985.61;108205;1273;22573;-78
2022/01/23 08:15:25;;;;;;;91.80;41.50;;;;;;;-3.86;78.56;99982.25;108216;1273;24372;-76
2022/01/23 08:17:52;;;;;;;83.80;38.80;;;;;;;-3.79;78.57;99985.08;108196;1273;22569;-76
2022/01/23 08:20:21;;;;;;;65.70;31.90;;;;;;;-3.72;78.87;99986.17;108221;1273;22628;-76
2022/01/23 08:22:48;;;;;;;67.90;31.80;;;;;;;-3.70;79.27;99985.52;108251;1273;25401;-75
2022/01/23 08:25:14;;;;;;;76.10;32.80;;;;;;;-3.68;79.26;99992.36;108225;1273;22662;-77
2022/01/23 08:27:41;;;;;;;72.80;31.90;;;;;;;-3.64;79.18;99990.71;108225;1273;22577;-75
2022/01/23 08:30:10;;;;;;;77.80;32.90;;;;;;;-3.61;78.78;99990.23;108227;1273;22561;-78
2022/01/23 08:32:37;;;;;;;76.40;33.10;;;;;;;-3.58;78.71;99998.46;108246;1273;22626;-75
2022/01/23 08:35:06;;;;;;;80.10;33.10;;;;;;;-3.58;78.40;100003.56;108476;1273;22554;-76
2022/01/23 08:37:33;;;;;;;69.30;31.80;;;;;;;-3.57;78.31;100006.98;108270;1273;22561;-75
2022/01/23 08:40:00;;;;;;;76.30;35.80;;;;;;;-3.52;78.43;100006.36;108214;1273;22701;-74
2022/01/23 08:42:27;;;;;;;85.00;39.60;;;;;;;-3.44;78.39;99996.59;108244;1273;22564;-75
2022/01/23 08:44:54;;;;;;;73.90;35.60;;;;;;;-3.41;78.65;99995.28;108227;1273;25998;-76
2022/01/23 08:47:23;;;;;;;81.50;35.80;;;;;;;-3.38;79.29;99996.32;108127;1273;25415;-75
2022/01/23 08:49:50;;;;;;;88.30;36.70;;;;;;;-3.38;79.26;99998.54;108179;1273;25335;-75
2022/01/23 08:52:20;;;;;;;85.10;36.70;;;;;;;-3.36;78.96;100002.98;108181;1273;26625;-76
2022/01/23 08:54:49;;;;;;;72.50;31.40;;;;;;;-3.34;78.74;100011.02;108209;1273;25383;-75
2022/01/23 08:57:18;;;;;;;73.50;31.20;;;;;;;-3.31;78.61;100005.95;108379;1273;22631;-79
2022/01/23 08:59:46;;;;;;;79.20;31.50;;;;;;;-3.27;78.41;100011.11;108389;1273;24246;-76
2022/01/23 09:02:14;;;;;;;71.10;30.10;;;;;;;-3.24;78.11;100013.89;109708;1273;22442;-76
2022/01/23 09:04:46;;;;;;;69.30;31.90;;;;;;;-3.16;78.25;100019.79;108406;1273;22560;-76
2022/01/23 09:07:13;;;;;;;58.90;27.80;;;;;;;-3.10;78.55;100025.98;108384;1273;22555;-79
2022/01/23 09:09:41;;;;;;;60.10;26.50;;;;;;;-3.03;78.75;100027.92;108395;1273;22557;-73
2022/01/23 09:14:55;;;;;;;76.40;31.40;;;;;;;-2.93;78.71;100040.82;108374;1274;24088;-79
2022/01/23 09:17:23;;;;;;;71.80;31.60;;;;;;;-2.90;78.53;100041.20;108426;1273;22557;-80
2022/01/23 09:19:50;;;;;;;68.50;31.70;;;;;;;-2.84;78.43;100043.65;108450;1273;22655;-80
2022/01/23 09:22:17;;;;;;;68.20;29.80;;;;;;;-2.81;78.15;100047.45;108435;1274;24328;-81
2022/01/23 09:24:43;;;;;;;68.00;30.10;;;;;;;-2.77;78.15;100046.45;108459;1273;22705;-81
2022/01/23 09:27:18;;;;;;;75.00;31.00;;;;;;;-2.73;78.04;100042.58;108443;1273;22688;-79
2022/01/23 09:29:49;;;;;;;77.00;31.70;;;;;;;-2.71;77.65;100035.11;108400;1273;22541;-76
2022/01/23 09:32:20;;;;;;;65.00;31.90;;;;;;;-2.66;77.75;100039.08;108447;1273;22539;-74
2022/01/23 09:34:48;;;;;;;71.90;30.40;;;;;;;-2.62;78.05;100037.24;108328;1273;22574;-75
2022/01/23 09:37:17;;;;;;;81.60;33.70;;;;;;;-2.59;78.33;100036.25;108253;1273;22566;-79
2022/01/23 09:39:49;;;;;;;81.90;33.90;;;;;;;-2.57;78.52;100038.13;108197;1273;22563;-75
2022/01/23 09:42:26;;;;;;;94.90;36.30;;;;;;;-2.58;78.30;100039.66;108416;1273;22586;-77
2022/01/23 09:44:58;;;;;;;84.40;34.10;;;;;;;-2.56;78.27;100042.74;108234;1273;22714;-74
2022/01/23 09:47:26;;;;;;;83.00;34.00;;;;;;;-2.56;78.01;100042.23;108191;1273;23223;-75
2022/01/23 09:49:55;;;;;;;73.70;30.70;;;;;;;-2.54;77.97;100048.41;108181;1273;22572;-78
2022/01/23 09:52:22;;;;;;;65.70;28.90;;;;;;;-2.52;77.66;100045.02;108208;1272;22678;-77
2022/01/23 09:55:00;;;;;;;72.00;31.20;;;;;;;-2.49;77.80;100045.39;108218;1274;23013;-76
2022/01/23 09:57:30;;;;;;;63.50;29.80;;;;;;;-2.41;77.65;100047.68;108255;1273;22608;-80
2022/01/23 10:00:00;;;;;;;56.60;25.90;;;;;;;-2.34;77.96;100046.72;108197;1273;22569;-75
2022/01/23 10:02:28;;;;;;;55.80;25.70;;;;;;;-2.28;78.46;100036.70;108225;1273;22560;-79
2022/01/23 10:04:55;;;;;;;60.30;25.20;;;;;;;-2.21;78.55;100029.77;108211;1273;22725;-81
2022/01/23 10:07:22;;;;;;;58.90;25.90;;;;;;;-2.15;78.16;100030.85;108205;1273;22578;-81
2022/01/23 10:09:56;;;;;;;56.20;26.10;;;;;;;-2.12;77.95;100034.61;108213;1273;22615;-82
2022/01/23 10:12:26;;;;;;;63.00;26.40;;;;;;;-2.07;77.93;100039.61;108215;1274;22634;-81
2022/01/23 10:14:54;;;;;;;43.10;20.80;;;;;;;-2.04;77.67;100040.48;108202;1273;22569;-82
2022/01/23 10:17:21;;;;;;;45.80;20.90;;;;;;;-2.01;77.66;100048.54;108291;1273;22626;-81
2022/01/23 10:19:48;;;;;;;43.70;20.70;;;;;;;-1.99;77.44;100050.77;108237;1273;25497;-82
2022/01/23 10:22:15;;;;;;;43.80;20.50;;;;;;;-2.00;77.31;100048.21;108188;1273;22567;-82
2022/01/23 10:24:42;;;;;;;42.10;20.50;;;;;;;-1.94;77.16;100045.17;108347;1273;22601;-81
2022/01/23 10:27:09;;;;;;;46.40;22.90;;;;;;;-1.90;77.69;100047.09;108202;1273;22560;-81
2022/01/23 10:29:43;;;;;;;43.80;22.10;;;;;;;-1.88;78.23;100045.05;108226;1273;25423;-83
2022/01/23 10:32:20;;;;;;;49.00;23.10;;;;;;;-1.86;78.15;100043.35;108596;1273;23316;-77
2022/01/23 10:35:00;;;;;;;43.10;20.60;;;;;;;-1.85;77.84;100043.19;108186;1273;22558;-84
2022/01/23 10:37:34;;;;;;;38.80;19.70;;;;;;;-1.87;77.42;100034.47;108263;1273;22724;-76
2022/01/23 10:40:09;;;;;;;41.30;21.50;;;;;;;-1.88;77.30;100031.23;108195;1273;22541;-76
2022/01/23 10:50:52;;;;;;;46.70;21.40;;;;;;;-1.83;76.96;100031.08;108436;1273;23259;-81
2022/01/23 10:53:19;;;;;;;43.90;19.70;;;;;;;-1.80;77.49;100025.64;108451;1273;22570;-75
2022/01/23 10:55:47;;;;;;;51.80;22.60;;;;;;;-1.83;77.48;100025.96;108431;1273;22541;-77
2022/01/23 10:58:20;;;;;;;53.70;23.10;;;;;;;-1.84;77.23;100023.21;108454;1273;22555;-76
2022/01/23 11:00:47;;;;;;;49.00;23.40;;;;;;;-1.83;76.89;100023.04;108450;1273;22552;-81
2022/01/23 11:03:22;;;;;;;51.10;23.30;;;;;;;-1.83;76.69;100021.00;108444;1273;24438;-75
2022/01/23 11:05:51;;;;;;;51.40;24.50;;;;;;;-1.83;76.72;100018.10;108476;1273;22585;-77
2022/01/23 11:08:24;;;;;;;55.90;25.20;;;;;;;-1.79;76.66;100020.00;108460;1273;22668;-76
2022/01/23 11:10:59;;;;;;;52.40;22.80;;;;;;;-1.73;76.38;100018.16;108407;1273;22620;-78
2022/01/23 11:19:35;;;;;;;58.80;23.40;;;;;;;-1.48;77.46;100007.71;108444;1273;22632;-76
2022/01/23 11:22:05;;;;;;;52.70;25.30;;;;;;;-1.48;77.15;100011.30;108433;1273;22550;-79
2022/01/23 11:24:39;;;;;;;48.60;23.60;;;;;;;-1.46;77.04;100016.10;108464;1273;22624;-80
2022/01/23 11:27:08;;;;;;;51.00;23.40;;;;;;;-1.39;76.59;100016.13;108445;1273;23533;-79
2022/01/23 11:29:35;;;;;;;53.80;24.00;;;;;;;-1.35;76.27;100016.17;108442;1273;22651;-76
2022/01/23 11:32:02;;;;;;;47.90;22.90;;;;;;;-1.34;76.09;100010.87;108440;1273;23289;-78
2022/01/23 11:34:32;;;;;;;45.80;22.10;;;;;;;-1.34;76.11;100012.92;108467;1273;24200;-75
2022/01/23 11:36:59;;;;;;;50.30;22.40;;;;;;;-1.32;76.06;100015.64;108459;1273;22671;-76
2022/01/23 11:39:54;;;;;;;49.10;22.10;;;;;;;-1.26;76.14;100017.39;108438;1273;22630;-75
2022/01/23 11:56:24;;;;;;;41.80;19.90;;;;;;;-0.86;75.96;100023.17;108443;1273;24441;-76
2022/01/23 11:59:30;;;;;;;43.60;21.50;;;;;;;-0.88;75.88;100022.30;108450;1273;22547;-77
2022/01/23 12:02:13;;;;;;;42.10;19.20;;;;;;;-0.86;75.86;100028.13;108400;1273;22655;-81
2022/01/23 12:04:43;;;;;;;42.20;19.90;;;;;;;-0.82;75.81;100029.19;108394;1273;22629;-80
2022/01/23 12:07:13;;;;;;;50.90;20.90;;;;;;;-0.79;75.62;100028.14;108455;1273;22627;-77
2022/01/23 12:09:43;;;;;;;47.60;21.80;;;;;;;-0.78;75.44;100027.30;108477;1273;22559;-76
2022/01/23 12:17:19;;;;;;;39.10;18.00;;;;;;;-0.67;75.76;100026.13;108470;1273;25436;-80
2022/01/23 12:19:53;;;;;;;38.10;18.40;;;;;;;-0.65;76.17;100026.83;108428;1273;22553;-76
2022/01/23 12:22:28;;;;;;;41.30;19.50;;;;;;;-0.65;76.04;100029.56;108448;1274;22591;-76
2022/01/23 12:24:58;;;;;;;40.90;18.90;;;;;;;-0.62;75.78;100027.17;108435;1273;22564;-84
2022/01/23 12:27:27;;;;;;;41.60;19.80;;;;;;;-0.60;75.45;100029.04;108430;1273;22614;-78
2022/01/23 12:30:09;;;;;;;38.70;18.50;;;;;;;-0.58;75.27;100028.73;108444;1273;22555;-77
2022/01/23 12:32:36;;;;;;;37.40;17.60;;;;;;;-0.57;75.21;100031.80;108438;1276;22554;-78
2022/01/23 12:35:07;;;;;;;38.40;18.30;;;;;;;-0.57;75.02;100032.65;108466;1273;22704;-83
2022/01/23 12:37:56;;;;;;;36.50;17.70;;;;;;;-0.59;74.76;100039.31;108457;1273;22554;-79
2022/01/23 12:40:33;;;;;;;42.40;19.90;;;;;;;-0.62;74.73;100041.20;108439;1273;22707;-76
2022/01/23 12:43:07;;;;;;;40.90;18.70;;;;;;;-0.64;74.78;100045.99;108442;1273;22559;-74
2022/01/23 12:45:56;;;;;;;42.90;18.70;;;;;;;-0.64;74.68;100043.60;108392;1274;22541;-74
2022/01/23 12:48:26;;;;;;;37.30;17.70;;;;;;;-0.62;74.69;100042.05;108451;1274;22546;-77
2022/01/23 12:51:05;;;;;;;44.00;19.10;;;;;;;-0.56;74.55;100037.79;108445;1274;22552;-75
2022/01/23 12:53:45;;;;;;;40.50;17.30;;;;;;;-0.52;75.19;100038.13;108447;1273;22541;-76
2022/01/23 12:56:16;;;;;;;41.10;18.90;;;;;;;-0.53;75.44;100043.42;108412;1274;22713;-74
2022/01/23 12:58:51;;;;;;;35.50;17.60;;;;;;;-0.60;75.19;100044.61;108437;1274;23102;-75
2022/01/23 13:01:21;;;;;;;33.60;16.80;;;;;;;-0.62;75.06;100042.39;108440;1273;22563;-73
2022/01/23 13:03:56;;;;;;;37.70;18.30;;;;;;;-0.62;74.64;100042.38;108431;1273;22553;-77
2022/01/23 13:06:29;;;;;;;36.20;17.20;;;;;;;-0.63;74.61;100046.33;108456;1273;22547;-76
2022/01/23 13:09:40;;;;;;;;;;;;;;;-0.63;74.34;100047.20;108436;1273;22682;-72
2022/01/23 13:12:17;;;;;;;32.20;15.90;;;;;;;-0.69;74.52;100041.69;108068;1282;23408;-73
2022/01/23 13:31:55;;;;;;;34.20;16.80;;;;;;;-0.75;74.93;100040.14;108063;1282;22559;-76
2022/01/23 13:34:29;;;;;;;36.90;18.10;;;;;;;-0.76;75.18;100034.84;108075;1282;25659;-77
2022/01/23 13:37:01;;;;;;;33.80;16.00;;;;;;;-0.77;75.06;100035.86;108053;1282;22545;-77
2022/01/23 13:39:42;;;;;;;36.20;17.70;;;;;;;-0.79;74.85;100037.73;108059;1282;25334;-79
2022/01/23 13:42:39;;;;;;;41.10;19.50;;;;;;;-0.79;74.76;100036.02;108082;1282;22549;-76
2022/01/23 13:57:38;;;;;;;37.30;18.00;;;;;;;-0.88;74.28;100027.61;108439;1273;22716;-77
2022/01/23 14:00:04;;;;;;;37.60;18.40;;;;;;;-0.94;74.31;100037.52;108425;1273;22528;-73
2022/01/23 14:02:44;;;;;;;44.90;19.00;;;;;;;-0.95;74.25;100044.35;108437;1273;24217;-73
2022/01/23 14:05:18;;;;;;;45.40;19.50;;;;;;;-0.92;74.30;100046.09;108453;1273;22671;-73
2022/01/23 14:07:54;;;;;;;39.10;19.60;;;;;;;-0.89;74.71;100050.19;108434;1273;24431;-77
2022/01/23 14:10:30;;;;;;;42.10;20.30;;;;;;;-0.86;75.23;100051.55;108430;1273;22627;-73
2022/01/23 14:13:14;;;;;;;69.40;32.60;;;;;;;-0.86;75.23;100058.91;108433;1273;22553;-73
2022/01/23 14:15:49;;;;;;;80.70;36.60;;;;;;;-0.88;75.09;100065.58;108440;1273;22597;-73
2022/01/23 14:18:22;;;;;;;79.20;36.90;;;;;;;-0.89;74.89;100073.44;108460;1273;22552;-73
2022/01/23 14:20:57;;;;;;;;;;;;;;;-0.91;74.76;100076.02;108471;1274;24389;-74
2022/01/23 14:23:25;;;;;;;69.80;31.30;;;;;;;-0.95;74.81;100078.38;108441;1273;22556;-73
2022/01/23 14:25:56;;;;;;;61.30;25.20;;;;;;;-0.98;74.65;100082.63;108462;1273;26518;-79
2022/01/23 14:28:28;;;;;;;52.80;23.90;;;;;;;-1.00;74.52;100075.63;108514;1273;22623;-77
2022/01/23 14:31:01;;;;;;;50.10;22.60;;;;;;;-1.05;74.60;100074.75;108449;1273;22625;-76
2022/01/23 14:33:35;;;;;;;50.10;22.80;;;;;;;-1.08;74.56;100071.50;108459;1274;22551;-78
2022/01/23 14:36:25;;;;;;;50.70;25.50;;;;;;;-1.05;74.72;100071.84;108467;1274;22681;-79
2022/01/23 14:39:01;;;;;;;55.70;25.00;;;;;;;-1.02;75.16;100070.15;108434;1274;22563;-79
2022/01/23 14:41:31;;;;;;;59.80;25.20;;;;;;;-1.04;75.59;100070.98;108438;1273;22540;-76
2022/01/23 14:43:58;;;;;;;58.90;25.80;;;;;;;-1.08;75.49;100075.94;108483;1273;23984;-76
2022/01/23 14:46:26;;;;;;;64.90;27.60;;;;;;;-1.11;75.30;100080.71;108526;1273;25193;-76
2022/01/23 14:48:59;;;;;;;70.00;31.00;;;;;;;-1.14;75.20;100081.54;108542;1273;22567;-77
2022/01/23 14:51:27;;;;;;;;;;;;;;;-1.18;75.09;100078.29;108522;1273;25468;-76
2022/01/23 14:53:54;;;;;;;68.60;29.30;;;;;;;-1.22;75.20;100083.73;108438;1274;22730;-77
2022/01/23 14:56:21;;;;;;;64.40;30.20;;;;;;;-1.24;75.01;100089.69;108456;1273;22798;-77
2022/01/23 14:58:51;;;;;;;58.40;27.30;;;;;;;-1.27;75.00;100091.91;108442;1273;22641;-76
2022/01/23 15:01:18;;;;;;;69.50;30.30;;;;;;;-1.29;75.07;100096.17;108422;1273;22623;-75
2022/01/23 15:03:53;;;;;;;61.20;27.00;;;;;;;-1.30;74.84;100094.29;108410;1274;22709;-77